sensor_id;sensor_type;location;lat;lon;timestamp;temperature;humidity
6581;DHT22;3324;50.796;7.228;2023-03-31T12:29:11;13.40;99.90
6581;DHT22;3324;50.796;7.228;2023-03-31T12:31:41;13.40;99.90
6581;DHT22;3324;50.796;7.228;2023-03-31T12:34:12;13.40;99.90
6581;DHT22;3324;50.796;7.228;2023-03-31T12:37:28;13.40;99.90
6581;DHT22;3324;50.796;7.228;2023-03-31T12:39:46;13.40;99.90
6581;DHT22;3324;50.796;7.228;2023-03-31T12:55:53;13.60;99.90
6581;DHT22;3324;50.796;7.228;2023-03-31T13:01:12;13.70;99.90
6581;DHT22;3324;50.796;7.228;2023-03-31T13:03:44;13.70;99.90
6581;DHT22;3324;50.796;7.228;2023-03-31T13:09:54;13.80;99.90
6581;DHT22;3324;50.796;7.228;2023-03-31T13:11:52;13.80;99.90
6581;DHT22;3324;50.796;7.228;2023-03-31T13:16:46;13.80;99.90
6581;DHT22;3324;50.796;7.228;2023-03-31T13:19:28;13.80;99.90
6581;DHT22;3324;50.796;7.228;2023-03-31T13:22:00;13.80;99.90
6581;DHT22;3324;50.796;7.228;2023-03-31T13:24:28;13.90;99.90
6581;DHT22;3324;50.796;7.228;2023-03-31T13:26:54;13.90;99.90
6581;DHT22;3324;50.796;7.228;2023-03-31T13:29:43;14.00;99.90
6581;DHT22;3324;50.796;7.228;2023-03-31T13:32:24;14.10;99.90
6581;DHT22;3324;50.796;7.228;2023-03-31T13:35:24;14.00;99.90
6581;DHT22;3324;50.796;7.228;2023-03-31T13:38:00;13.80;99.90
6581;DHT22;3324;50.796;7.228;2023-03-31T13:43:40;13.80;99.90
6581;DHT22;3324;50.796;7.228;2023-03-31T13:52:02;14.20;99.90
6581;DHT22;3324;50.796;7.228;2023-03-31T13:54:39;14.30;99.90
6581;DHT22;3324;50.796;7.228;2023-03-31T14:02:47;14.40;99.90
6581;DHT22;3324;50.796;7.228;2023-03-31T14:05:30;14.40;99.90
6581;DHT22;3324;50.796;7.228;2023-03-31T14:08:00;14.40;99.90
6581;DHT22;3324;50.796;7.228;2023-03-31T14:10:35;14.40;99.90
6581;DHT22;3324;50.796;7.228;2023-03-31T14:13:12;14.40;99.90
6581;DHT22;3324;50.796;7.228;2023-03-31T14:18:17;14.40;99.90
6581;DHT22;3324;50.796;7.228;2023-03-31T14:23:41;14.40;99.90
6581;DHT22;3324;50.796;7.228;2023-03-31T14:29:27;14.50;99.90
6581;DHT22;3324;50.796;7.228;2023-03-31T14:34:50;14.40;99.90
6581;DHT22;3324;50.796;7.228;2023-03-31T14:37:18;14.40;99.90
6581;DHT22;3324;50.796;7.228;2023-03-31T14:39:50;14.50;99.90
6581;DHT22;3324;50.796;7.228;2023-03-31T14:45:23;14.60;99.90
6581;DHT22;3324;50.796;7.228;2023-03-31T14:48:10;14.60;99.90
6581;DHT22;3324;50.796;7.228;2023-03-31T14:50:41;14.60;99.90
6581;DHT22;3324;50.796;7.228;2023-03-31T14:53:16;14.60;99.90
6581;DHT22;3324;50.796;7.228;2023-03-31T14:55:43;14.50;99.90
6581;DHT22;3324;50.796;7.228;2023-03-31T14:58:12;14.50;99.90
6581;DHT22;3324;50.796;7.228;2023-03-31T15:00:40;14.50;99.90
6581;DHT22;3324;50.796;7.228;2023-03-31T15:03:08;14.40;99.90
6581;DHT22;3324;50.796;7.228;2023-03-31T15:05:40;14.50;99.90
6581;DHT22;3324;50.796;7.228;2023-03-31T15:08:14;14.50;99.90
6581;DHT22;3324;50.796;7.228;2023-03-31T15:10:57;14.50;99.90
6581;DHT22;3324;50.796;7.228;2023-03-31T15:13:36;14.50;99.90
6581;DHT22;3324;50.796;7.228;2023-03-31T15:18:57;14.50;99.90
6581;DHT22;3324;50.796;7.228;2023-03-31T15:21:25;14.50;99.90
6581;DHT22;3324;50.796;7.228;2023-03-31T15:23:52;14.40;99.90
6581;DHT22;3324;50.796;7.228;2023-03-31T15:26:25;14.40;99.90
6581;DHT22;3324;50.796;7.228;2023-03-31T15:28:55;14.40;99.90
6581;DHT22;3324;50.796;7.228;2023-03-31T15:31:22;14.40;99.90
6581;DHT22;3324;50.796;7.228;2023-03-31T15:33:48;14.40;99.90
6581;DHT22;3324;50.796;7.228;2023-03-31T15:39:36;14.50;99.90
6581;DHT22;3324;50.796;7.228;2023-03-31T15:42:04;14.50;99.90
6581;DHT22;3324;50.796;7.228;2023-03-31T15:44:56;14.50;99.90
6581;DHT22;3324;50.796;7.228;2023-03-31T15:47:29;14.50;99.90
6581;DHT22;3324;50.796;7.228;2023-03-31T15:52:36;14.60;99.90
6581;DHT22;3324;50.796;7.228;2023-03-31T15:55:25;14.50;99.90
6581;DHT22;3324;50.796;7.228;2023-03-31T15:57:53;14.50;99.90
6581;DHT22;3324;50.796;7.228;2023-03-31T16:03:15;14.60;99.90
6581;DHT22;3324;50.796;7.228;2023-03-31T16:05:54;14.60;99.90
6581;DHT22;3324;50.796;7.228;2023-03-31T16:08:47;14.50;99.90
6581;DHT22;3324;50.796;7.228;2023-03-31T16:11:21;14.50;99.90
6581;DHT22;3324;50.796;7.228;2023-03-31T16:13:51;14.50;99.90
6581;DHT22;3324;50.796;7.228;2023-03-31T16:16:20;14.40;99.90
6581;DHT22;3324;50.796;7.228;2023-03-31T16:18:52;14.40;99.90
6581;DHT22;3324;50.796;7.228;2023-03-31T16:21:24;14.40;99.90
6581;DHT22;3324;50.796;7.228;2023-03-31T16:23:56;14.30;99.90
6581;DHT22;3324;50.796;7.228;2023-03-31T16:26:24;14.40;99.90
6581;DHT22;3324;50.796;7.228;2023-03-31T16:28:53;14.30;99.90
6581;DHT22;3324;50.796;7.228;2023-03-31T16:34:03;14.30;99.90
6581;DHT22;3324;50.796;7.228;2023-03-31T16:36:29;14.30;99.90
6581;DHT22;3324;50.796;7.228;2023-03-31T16:38:55;14.30;99.90
6581;DHT22;3324;50.796;7.228;2023-03-31T16:41:23;14.30;99.90
6581;DHT22;3324;50.796;7.228;2023-03-31T16:43:49;14.30;99.90
6581;DHT22;3324;50.796;7.228;2023-03-31T16:46:21;14.20;99.90
6581;DHT22;3324;50.796;7.228;2023-03-31T16:48:47;14.20;99.90
6581;DHT22;3324;50.796;7.228;2023-03-31T16:51:13;14.20;99.90
6581;DHT22;3324;50.796;7.228;2023-03-31T16:53:39;14.10;99.90
6581;DHT22;3324;50.796;7.228;2023-03-31T16:56:06;14.20;99.90
6581;DHT22;3324;50.796;7.228;2023-03-31T16:58:33;14.20;99.90
6581;DHT22;3324;50.796;7.228;2023-03-31T17:00:59;14.10;99.90
6581;DHT22;3324;50.796;7.228;2023-03-31T17:03:25;14.10;99.90
6581;DHT22;3324;50.796;7.228;2023-03-31T17:05:53;14.10;99.90
6581;DHT22;3324;50.796;7.228;2023-03-31T17:08:20;14.10;99.90
6581;DHT22;3324;50.796;7.228;2023-03-31T17:13:20;14.00;99.90
6581;DHT22;3324;50.796;7.228;2023-03-31T17:15:46;14.00;99.90
6581;DHT22;3324;50.796;7.228;2023-03-31T17:18:13;14.00;99.90
6581;DHT22;3324;50.796;7.228;2023-03-31T17:20:39;14.00;99.90
6581;DHT22;3324;50.796;7.228;2023-03-31T17:23:04;13.90;99.90
6581;DHT22;3324;50.796;7.228;2023-03-31T17:25:30;13.90;99.90
6581;DHT22;3324;50.796;7.228;2023-03-31T17:27:56;13.90;99.90
6581;DHT22;3324;50.796;7.228;2023-03-31T17:30:25;13.90;99.90
6581;DHT22;3324;50.796;7.228;2023-03-31T17:32:50;13.90;99.90
6581;DHT22;3324;50.796;7.228;2023-03-31T17:35:16;13.90;99.90
6581;DHT22;3324;50.796;7.228;2023-03-31T17:37:46;13.90;99.90
6581;DHT22;3324;50.796;7.228;2023-03-31T17:40:12;13.80;99.90
6581;DHT22;3324;50.796;7.228;2023-03-31T17:42:37;13.80;99.90
6581;DHT22;3324;50.796;7.228;2023-03-31T17:45:03;13.80;99.90
6581;DHT22;3324;50.796;7.228;2023-03-31T17:47:30;13.80;99.90
6581;DHT22;3324;50.796;7.228;2023-03-31T17:49:56;13.80;99.90
6581;DHT22;3324;50.796;7.228;2023-03-31T17:52:23;13.80;99.90
6581;DHT22;3324;50.796;7.228;2023-03-31T17:54:49;13.70;99.90
6581;DHT22;3324;50.796;7.228;2023-03-31T17:57:15;13.80;99.90
6581;DHT22;3324;50.796;7.228;2023-03-31T17:59:41;13.70;99.90
6581;DHT22;3324;50.796;7.228;2023-03-31T18:02:10;13.70;99.90
6581;DHT22;3324;50.796;7.228;2023-03-31T18:04:37;13.70;99.90
6581;DHT22;3324;50.796;7.228;2023-03-31T18:07:02;13.70;99.90
6581;DHT22;3324;50.796;7.228;2023-03-31T18:09:28;13.70;99.90
6581;DHT22;3324;50.796;7.228;2023-03-31T18:11:54;13.70;99.90
6581;DHT22;3324;50.796;7.228;2023-03-31T18:14:19;13.70;99.90
6581;DHT22;3324;50.796;7.228;2023-03-31T18:16:45;13.60;99.90
6581;DHT22;3324;50.796;7.228;2023-03-31T18:19:11;13.60;99.90
6581;DHT22;3324;50.796;7.228;2023-03-31T18:21:37;13.60;99.90
6581;DHT22;3324;50.796;7.228;2023-03-31T18:24:02;13.60;99.90
6581;DHT22;3324;50.796;7.228;2023-03-31T18:26:28;13.60;99.90
6581;DHT22;3324;50.796;7.228;2023-03-31T18:28:54;13.70;99.90
6581;DHT22;3324;50.796;7.228;2023-03-31T18:31:19;13.60;99.90
6581;DHT22;3324;50.796;7.228;2023-03-31T18:33:49;13.60;99.90
6581;DHT22;3324;50.796;7.228;2023-03-31T18:36:18;13.60;99.90
6581;DHT22;3324;50.796;7.228;2023-03-31T18:38:47;13.50;99.90
6581;DHT22;3324;50.796;7.228;2023-03-31T18:41:15;13.50;99.90
6581;DHT22;3324;50.796;7.228;2023-03-31T18:43:42;13.50;99.90
6581;DHT22;3324;50.796;7.228;2023-03-31T18:46:08;13.50;99.90
6581;DHT22;3324;50.796;7.228;2023-03-31T18:48:35;13.50;99.90
6581;DHT22;3324;50.796;7.228;2023-03-31T18:51:01;13.50;99.90
6581;DHT22;3324;50.796;7.228;2023-03-31T18:53:27;13.40;99.90
6581;DHT22;3324;50.796;7.228;2023-03-31T18:55:56;13.40;99.90
6581;DHT22;3324;50.796;7.228;2023-03-31T18:58:26;13.40;99.90
6581;DHT22;3324;50.796;7.228;2023-03-31T19:00:53;13.30;99.90
6581;DHT22;3324;50.796;7.228;2023-03-31T19:03:18;13.40;99.90
6581;DHT22;3324;50.796;7.228;2023-03-31T19:05:45;13.30;99.90
6581;DHT22;3324;50.796;7.228;2023-03-31T19:08:10;13.30;99.90
6581;DHT22;3324;50.796;7.228;2023-03-31T19:10:36;13.30;99.90
6581;DHT22;3324;50.796;7.228;2023-03-31T19:13:02;13.30;99.90
6581;DHT22;3324;50.796;7.228;2023-03-31T19:15:28;13.30;99.90
6581;DHT22;3324;50.796;7.228;2023-03-31T19:17:53;13.20;99.90
6581;DHT22;3324;50.796;7.228;2023-03-31T19:20:20;13.20;99.90
6581;DHT22;3324;50.796;7.228;2023-03-31T19:22:48;13.20;99.90
6581;DHT22;3324;50.796;7.228;2023-03-31T19:25:16;13.20;99.90
6581;DHT22;3324;50.796;7.228;2023-03-31T19:27:42;13.10;99.90
6581;DHT22;3324;50.796;7.228;2023-03-31T19:30:15;13.10;99.90
6581;DHT22;3324;50.796;7.228;2023-03-31T19:32:42;13.00;99.90
6581;DHT22;3324;50.796;7.228;2023-03-31T19:35:08;13.00;99.90
6581;DHT22;3324;50.796;7.228;2023-03-31T19:37:34;13.00;99.90
6581;DHT22;3324;50.796;7.228;2023-03-31T19:40:00;13.00;99.90
6581;DHT22;3324;50.796;7.228;2023-03-31T19:42:26;13.00;99.90
6581;DHT22;3324;50.796;7.228;2023-03-31T19:44:52;13.00;99.90
6581;DHT22;3324;50.796;7.228;2023-03-31T19:47:17;12.90;99.90
6581;DHT22;3324;50.796;7.228;2023-03-31T19:49:43;12.90;99.90
6581;DHT22;3324;50.796;7.228;2023-03-31T19:52:08;12.90;99.90
6581;DHT22;3324;50.796;7.228;2023-03-31T19:54:34;12.90;99.90
6581;DHT22;3324;50.796;7.228;2023-03-31T19:57:00;12.90;99.90
6581;DHT22;3324;50.796;7.228;2023-03-31T19:59:26;12.80;99.90
6581;DHT22;3324;50.796;7.228;2023-03-31T20:01:51;12.80;99.90
6581;DHT22;3324;50.796;7.228;2023-03-31T20:04:17;12.80;99.90
6581;DHT22;3324;50.796;7.228;2023-03-31T20:06:43;12.70;99.90
6581;DHT22;3324;50.796;7.228;2023-03-31T20:09:09;12.70;99.90
6581;DHT22;3324;50.796;7.228;2023-03-31T20:11:35;12.70;99.90
6581;DHT22;3324;50.796;7.228;2023-03-31T20:14:01;12.70;99.90
6581;DHT22;3324;50.796;7.228;2023-03-31T20:16:28;12.70;99.90
6581;DHT22;3324;50.796;7.228;2023-03-31T20:18:59;12.70;99.90
6581;DHT22;3324;50.796;7.228;2023-03-31T20:21:27;12.70;99.90
6581;DHT22;3324;50.796;7.228;2023-03-31T20:23:53;12.70;99.90
6581;DHT22;3324;50.796;7.228;2023-03-31T20:26:23;12.70;99.90
6581;DHT22;3324;50.796;7.228;2023-03-31T20:28:50;12.70;99.90
6581;DHT22;3324;50.796;7.228;2023-03-31T20:31:22;12.70;99.90
6581;DHT22;3324;50.796;7.228;2023-03-31T20:33:49;12.70;99.90
6581;DHT22;3324;50.796;7.228;2023-03-31T20:36:21;12.70;99.90
6581;DHT22;3324;50.796;7.228;2023-03-31T20:38:49;12.60;99.90
6581;DHT22;3324;50.796;7.228;2023-03-31T20:41:23;12.60;99.90
6581;DHT22;3324;50.796;7.228;2023-03-31T20:43:51;12.60;99.90
6581;DHT22;3324;50.796;7.228;2023-03-31T20:49:39;12.60;99.90
6581;DHT22;3324;50.796;7.228;2023-03-31T20:52:06;12.60;99.90
6581;DHT22;3324;50.796;7.228;2023-03-31T20:54:31;12.60;99.90
6581;DHT22;3324;50.796;7.228;2023-03-31T20:56:57;12.60;99.90
6581;DHT22;3324;50.796;7.228;2023-03-31T20:59:25;12.50;99.90
6581;DHT22;3324;50.796;7.228;2023-03-31T21:01:51;12.50;99.90
6581;DHT22;3324;50.796;7.228;2023-03-31T21:04:17;12.40;99.90
6581;DHT22;3324;50.796;7.228;2023-03-31T21:06:45;12.40;99.90
6581;DHT22;3324;50.796;7.228;2023-03-31T21:09:12;12.40;99.90
6581;DHT22;3324;50.796;7.228;2023-03-31T21:11:39;12.40;99.90
6581;DHT22;3324;50.796;7.228;2023-03-31T21:14:05;12.40;99.90
6581;DHT22;3324;50.796;7.228;2023-03-31T21:16:31;12.40;99.90
6581;DHT22;3324;50.796;7.228;2023-03-31T21:18:57;12.40;99.90
6581;DHT22;3324;50.796;7.228;2023-03-31T21:21:26;12.40;99.90
6581;DHT22;3324;50.796;7.228;2023-03-31T21:23:52;12.40;99.90
6581;DHT22;3324;50.796;7.228;2023-03-31T21:29:53;12.40;99.90
6581;DHT22;3324;50.796;7.228;2023-03-31T21:32:19;12.40;99.90
6581;DHT22;3324;50.796;7.228;2023-03-31T21:34:44;12.40;99.90
6581;DHT22;3324;50.796;7.228;2023-03-31T21:37:10;12.40;99.90
6581;DHT22;3324;50.796;7.228;2023-03-31T21:39:35;12.30;99.90
6581;DHT22;3324;50.796;7.228;2023-03-31T21:42:01;12.30;99.90
6581;DHT22;3324;50.796;7.228;2023-03-31T21:44:27;12.20;99.90
6581;DHT22;3324;50.796;7.228;2023-03-31T21:46:52;12.30;99.90
6581;DHT22;3324;50.796;7.228;2023-03-31T21:49:18;12.20;99.90
6581;DHT22;3324;50.796;7.228;2023-03-31T21:51:44;12.30;99.90
6581;DHT22;3324;50.796;7.228;2023-03-31T21:54:09;12.30;99.90
6581;DHT22;3324;50.796;7.228;2023-03-31T21:56:36;12.30;99.90
6581;DHT22;3324;50.796;7.228;2023-03-31T21:59:01;12.30;99.90
6581;DHT22;3324;50.796;7.228;2023-03-31T22:01:28;12.30;99.90
6581;DHT22;3324;50.796;7.228;2023-03-31T22:03:54;12.30;99.90
6581;DHT22;3324;50.796;7.228;2023-03-31T22:06:19;12.30;99.90
6581;DHT22;3324;50.796;7.228;2023-03-31T22:08:46;12.30;99.90
6581;DHT22;3324;50.796;7.228;2023-03-31T22:11:13;12.30;99.90
6581;DHT22;3324;50.796;7.228;2023-03-31T22:13:39;12.30;99.90
6581;DHT22;3324;50.796;7.228;2023-03-31T22:16:16;12.30;99.90
6581;DHT22;3324;50.796;7.228;2023-03-31T22:18:42;12.30;99.90
6581;DHT22;3324;50.796;7.228;2023-03-31T22:21:20;12.30;99.90
6581;DHT22;3324;50.796;7.228;2023-03-31T22:23:46;12.20;99.90
6581;DHT22;3324;50.796;7.228;2023-03-31T22:26:12;12.20;99.90
6581;DHT22;3324;50.796;7.228;2023-03-31T22:28:38;12.20;99.90
6581;DHT22;3324;50.796;7.228;2023-03-31T22:31:04;12.20;99.90
6581;DHT22;3324;50.796;7.228;2023-03-31T22:33:29;12.20;99.90
6581;DHT22;3324;50.796;7.228;2023-03-31T22:35:55;12.20;99.90
6581;DHT22;3324;50.796;7.228;2023-03-31T22:38:21;12.20;99.90
6581;DHT22;3324;50.796;7.228;2023-03-31T22:40:46;12.20;99.90
6581;DHT22;3324;50.796;7.228;2023-03-31T22:43:12;12.20;99.90
6581;DHT22;3324;50.796;7.228;2023-03-31T22:48:59;12.20;99.90
6581;DHT22;3324;50.796;7.228;2023-03-31T22:51:25;12.20;99.90
6581;DHT22;3324;50.796;7.228;2023-03-31T22:53:52;12.10;99.90
6581;DHT22;3324;50.796;7.228;2023-03-31T22:56:19;12.20;99.90
6581;DHT22;3324;50.796;7.228;2023-03-31T22:58:46;12.10;99.90
6581;DHT22;3324;50.796;7.228;2023-03-31T23:01:13;12.10;99.90
6581;DHT22;3324;50.796;7.228;2023-03-31T23:03:40;12.10;99.90
6581;DHT22;3324;50.796;7.228;2023-03-31T23:06:07;12.20;99.90
6581;DHT22;3324;50.796;7.228;2023-03-31T23:08:34;12.20;99.90
6581;DHT22;3324;50.796;7.228;2023-03-31T23:11:01;12.10;99.90
6581;DHT22;3324;50.796;7.228;2023-03-31T23:13:27;12.20;99.90
6581;DHT22;3324;50.796;7.228;2023-03-31T23:19:14;12.20;99.90
6581;DHT22;3324;50.796;7.228;2023-03-31T23:21:42;12.20;99.90
6581;DHT22;3324;50.796;7.228;2023-03-31T23:24:09;12.10;99.90
6581;DHT22;3324;50.796;7.228;2023-03-31T23:26:35;12.10;99.90
6581;DHT22;3324;50.796;7.228;2023-03-31T23:29:01;12.10;99.90
6581;DHT22;3324;50.796;7.228;2023-03-31T23:31:31;12.10;99.90
6581;DHT22;3324;50.796;7.228;2023-03-31T23:33:58;12.10;99.90
6581;DHT22;3324;50.796;7.228;2023-03-31T23:36:24;12.10;99.90
6581;DHT22;3324;50.796;7.228;2023-03-31T23:38:51;12.10;99.90
6581;DHT22;3324;50.796;7.228;2023-03-31T23:41:18;12.10;99.90
6581;DHT22;3324;50.796;7.228;2023-03-31T23:43:44;12.10;99.90
6581;DHT22;3324;50.796;7.228;2023-03-31T23:46:10;12.10;99.90
6581;DHT22;3324;50.796;7.228;2023-03-31T23:48:37;12.00;99.90
6581;DHT22;3324;50.796;7.228;2023-03-31T23:51:05;12.00;99.90
6581;DHT22;3324;50.796;7.228;2023-03-31T23:53:31;12.00;99.90
6581;DHT22;3324;50.796;7.228;2023-03-31T23:56:02;12.00;99.90
6581;DHT22;3324;50.796;7.228;2023-03-31T23:58:28;12.00;99.90
